Time;durP1;ratioP1;P1;durP2;ratioP2;P2;SDS_P1;SDS_P2;PMS_P1;PMS_P2;Temp;Humidity;BMP_temperature;BMP_pressure;BME280_temperature;BME280_humidity;BME280_pressure;Samples;Min_cycle;Max_cycle;Signal;HPM_P1;HPM_P2
2022/05/05 00:00:06;;;;;;;2.20;2.10;;;;;;;;;;4895792;29;20052;-76
2022/05/05 00:02:32;;;;;;;2.13;1.98;;;;;;;;;;4896505;29;20059;-77
2022/05/05 00:04:58;;;;;;;3.95;2.25;;;;;;;;;;4896109;29;20139;-75
2022/05/05 00:07:24;;;;;;;2.45;2.20;;;;;;;;;;4896315;29;20052;-76
2022/05/05 00:09:50;;;;;;;2.53;2.42;;;;;;;;;;4895927;29;20041;-74
2022/05/05 00:15:00;;;;;;;2.42;2.33;;;;;;;;;;4878930;29;20155;-76
2022/05/05 00:17:26;;;;;;;2.55;2.40;;;;;;;;;;4896244;29;20040;-75
2022/05/05 00:19:52;;;;;;;4.32;2.45;;;;;;;;;;4895743;29;20067;-75
2022/05/05 00:22:18;;;;;;;2.50;2.30;;;;;;;;;;4896146;29;20048;-76
2022/05/05 00:24:44;;;;;;;3.25;2.92;;;;;;;;;;4863142;29;20376;-73
2022/05/05 00:27:10;;;;;;;2.55;2.38;;;;;;;;;;4896026;29;20533;-75
2022/05/05 00:29:36;;;;;;;2.67;2.50;;;;;;;;;;4879138;29;20052;-74
2022/05/05 00:32:02;;;;;;;3.50;2.22;;;;;;;;;;4895524;29;20061;-76
2022/05/05 00:34:28;;;;;;;9.35;2.45;;;;;;;;;;4878891;29;20067;-76
2022/05/05 00:36:54;;;;;;;2.95;2.70;;;;;;;;;;4895523;29;20114;-76
2022/05/05 00:39:20;;;;;;;3.10;2.42;;;;;;;;;;4878864;29;20117;-74
2022/05/05 00:41:46;;;;;;;2.28;2.15;;;;;;;;;;4895312;29;20119;-75
2022/05/05 00:44:12;;;;;;;2.50;2.33;;;;;;;;;;4895388;29;20064;-76
2022/05/05 00:46:38;;;;;;;2.20;2.10;;;;;;;;;;4878854;29;20076;-75
2022/05/05 00:49:04;;;;;;;5.03;1.98;;;;;;;;;;4878435;29;20530;-76
2022/05/05 00:51:30;;;;;;;2.78;2.30;;;;;;;;;;4895507;29;20045;-75
2022/05/05 00:53:56;;;;;;;3.03;1.95;;;;;;;;;;4878234;29;20557;-74
2022/05/05 00:56:22;;;;;;;7.30;2.67;;;;;;;;;;4895369;29;20051;-75
2022/05/05 00:58:48;;;;;;;3.60;2.50;;;;;;;;;;4878424;29;20196;-74
2022/05/05 01:01:14;;;;;;;2.35;2.15;;;;;;;;;;4862912;29;20049;-74
2022/05/05 01:03:40;;;;;;;2.17;2.00;;;;;;;;;;4895204;29;20136;-75
2022/05/05 01:06:06;;;;;;;3.00;2.63;;;;;;;;;;4895031;29;20575;-75
2022/05/05 01:08:32;;;;;;;2.80;2.60;;;;;;;;;;4895161;29;20075;-74
2022/05/05 01:10:58;;;;;;;2.92;2.72;;;;;;;;;;4894600;29;20088;-74
2022/05/05 01:13:27;;;;;;;3.20;2.70;;;;;;;;;;4895055;29;20343;-74
2022/05/05 01:15:53;;;;;;;3.28;3.08;;;;;;;;;;4894504;29;20078;-74
2022/05/05 01:18:19;;;;;;;2.70;2.58;;;;;;;;;;4894636;29;20195;-74
2022/05/05 01:20:48;;;;;;;3.20;2.90;;;;;;;;;;4896582;29;20538;-74
2022/05/05 01:23:14;;;;;;;3.00;2.80;;;;;;;;;;4913768;29;20052;-74
2022/05/05 01:28:25;;;;;;;2.70;2.50;;;;;;;;;;4898851;29;20155;-76
2022/05/05 01:30:51;;;;;;;2.92;2.60;;;;;;;;;;4897200;29;20146;-77
2022/05/05 01:33:17;;;;;;;3.05;2.63;;;;;;;;;;4913091;29;20092;-75
2022/05/05 01:35:44;;;;;;;3.17;2.88;;;;;;;;;;4892668;29;20044;-76
2022/05/05 01:38:11;;;;;;;5.40;2.70;;;;;;;;;;4915510;29;20052;-75
2022/05/05 01:40:37;;;;;;;3.08;2.78;;;;;;;;;;4896393;29;20387;-76
2022/05/05 01:43:05;;;;;;;6.90;2.88;;;;;;;;;;4913240;29;20044;-77
2022/05/05 01:45:31;;;;;;;4.03;2.90;;;;;;;;;;4876742;29;20063;-76
2022/05/05 01:47:57;;;;;;;3.10;2.30;;;;;;;;;;4907189;29;20036;-77
2022/05/05 01:50:25;;;;;;;4.38;2.80;;;;;;;;;;4880782;29;20062;-76
2022/05/05 01:52:52;;;;;;;2.80;2.60;;;;;;;;;;4912060;29;20079;-77
2022/05/05 01:55:18;;;;;;;6.25;3.10;;;;;;;;;;4912533;29;20048;-77
2022/05/05 01:57:44;;;;;;;6.25;2.80;;;;;;;;;;4912808;29;20103;-76
2022/05/05 02:00:10;;;;;;;3.53;2.70;;;;;;;;;;4927425;29;20056;-77
2022/05/05 02:02:43;;;;;;;3.65;2.60;;;;;;;;;;4912621;29;20052;-76
2022/05/05 02:05:09;;;;;;;2.65;2.40;;;;;;;;;;4896051;29;20123;-76
2022/05/05 02:07:36;;;;;;;3.30;2.60;;;;;;;;;;4896257;29;20071;-75
2022/05/05 02:10:03;;;;;;;10.27;2.92;;;;;;;;;;4895489;29;20044;-75
2022/05/05 02:12:33;;;;;;;8.18;3.40;;;;;;;;;;4913199;29;20063;-75
2022/05/05 02:14:58;;;;;;;4.25;2.75;;;;;;;;;;4896030;29;20585;-77
2022/05/05 02:17:24;;;;;;;7.72;2.85;;;;;;;;;;4913240;29;20052;-75
2022/05/05 02:19:51;;;;;;;7.20;3.05;;;;;;;;;;4880211;29;20048;-75
2022/05/05 02:22:16;;;;;;;4.93;3.00;;;;;;;;;;4912891;29;20503;-75
2022/05/05 02:24:42;;;;;;;3.63;3.08;;;;;;;;;;4912334;29;20047;-75
2022/05/05 02:27:08;;;;;;;19.13;3.78;;;;;;;;;;4912793;29;20052;-76
2022/05/05 02:29:34;;;;;;;3.40;2.60;;;;;;;;;;4912731;29;20061;-77
2022/05/05 02:32:00;;;;;;;6.75;2.90;;;;;;;;;;4912447;29;20084;-76
2022/05/05 02:34:27;;;;;;;3.20;2.90;;;;;;;;;;4912583;29;20048;-77
2022/05/05 02:39:37;;;;;;;4.55;2.80;;;;;;;;;;4912467;29;20147;-76
2022/05/05 02:42:03;;;;;;;2.55;2.35;;;;;;;;;;4895563;29;20247;-76
2022/05/05 02:44:29;;;;;;;7.18;3.38;;;;;;;;;;4912525;29;20040;-75
2022/05/05 02:46:55;;;;;;;4.90;3.00;;;;;;;;;;4912355;29;20059;-75
2022/05/05 02:49:21;;;;;;;8.77;3.15;;;;;;;;;;4912368;29;20040;-75
2022/05/05 02:51:46;;;;;;;6.07;2.83;;;;;;;;;;4912446;29;20052;-75
2022/05/05 02:56:57;;;;;;;3.25;2.95;;;;;;;;;;4882029;29;20456;-74
2022/05/05 02:59:23;;;;;;;3.13;2.83;;;;;;;;;;4895194;29;20059;-76
2022/05/05 03:01:49;;;;;;;6.18;3.28;;;;;;;;;;4912247;29;20397;-75
2022/05/05 03:04:15;;;;;;;5.05;3.15;;;;;;;;;;4895392;29;20050;-76
2022/05/05 03:06:41;;;;;;;8.55;3.22;;;;;;;;;;4913813;29;20055;-76
2022/05/05 03:09:07;;;;;;;3.05;2.83;;;;;;;;;;4914796;29;20455;-75
2022/05/05 03:11:33;;;;;;;4.95;2.90;;;;;;;;;;4919519;29;20039;-76
2022/05/05 03:13:59;;;;;;;3.38;3.05;;;;;;;;;;4920749;29;20123;-76
2022/05/05 03:16:25;;;;;;;2.88;2.28;;;;;;;;;;4920608;29;20044;-74
2022/05/05 03:18:51;;;;;;;3.17;2.90;;;;;;;;;;4899657;29;20044;-75
2022/05/05 03:21:16;;;;;;;3.22;3.03;;;;;;;;;;4916534;29;20040;-75
2022/05/05 03:23:42;;;;;;;4.05;3.70;;;;;;;;;;4917409;29;20131;-75
2022/05/05 03:26:08;;;;;;;3.55;3.25;;;;;;;;;;4916547;29;20051;-75
2022/05/05 03:28:34;;;;;;;3.05;2.83;;;;;;;;;;4916340;29;20084;-78
2022/05/05 03:31:00;;;;;;;3.65;3.08;;;;;;;;;;4916083;29;20087;-78
2022/05/05 03:33:26;;;;;;;2.30;2.15;;;;;;;;;;4916091;29;20411;-76
2022/05/05 03:35:52;;;;;;;3.13;2.90;;;;;;;;;;4915313;29;20044;-78
2022/05/05 03:38:18;;;;;;;4.57;3.17;;;;;;;;;;4915403;29;20122;-75
2022/05/05 03:40:45;;;;;;;2.75;2.55;;;;;;;;;;4898774;29;20083;-74
2022/05/05 03:43:11;;;;;;;7.60;2.17;;;;;;;;;;4916583;29;20119;-75
2022/05/05 03:45:37;;;;;;;3.60;3.40;;;;;;;;;;4916091;29;20554;-77
2022/05/05 03:48:02;;;;;;;4.97;3.70;;;;;;;;;;4915157;29;20040;-77
2022/05/05 03:50:29;;;;;;;5.05;3.60;;;;;;;;;;4916134;29;20066;-76
2022/05/05 03:52:55;;;;;;;3.78;3.42;;;;;;;;;;4898701;29;20048;-76
2022/05/05 03:55:21;;;;;;;3.40;3.10;;;;;;;;;;4916941;29;20132;-77
2022/05/05 03:57:48;;;;;;;3.40;3.00;;;;;;;;;;4885809;29;20044;-77
2022/05/05 04:00:14;;;;;;;3.38;3.10;;;;;;;;;;4921611;29;20067;-76
2022/05/05 04:02:40;;;;;;;3.00;2.80;;;;;;;;;;4894457;29;20052;-76
2022/05/05 04:05:06;;;;;;;4.10;3.33;;;;;;;;;;4925181;29;20051;-76
2022/05/05 04:07:32;;;;;;;4.18;3.08;;;;;;;;;;4923370;29;20075;-75
2022/05/05 04:09:58;;;;;;;3.50;2.70;;;;;;;;;;4917484;29;20426;-76
2022/05/05 04:12:24;;;;;;;3.95;3.55;;;;;;;;;;4915522;29;20044;-76
2022/05/05 04:14:51;;;;;;;3.58;3.15;;;;;;;;;;4898780;29;20044;-75
2022/05/05 04:17:17;;;;;;;3.50;3.20;;;;;;;;;;4915105;29;20051;-76
2022/05/05 04:19:43;;;;;;;3.78;3.17;;;;;;;;;;4878101;29;20048;-76
2022/05/05 04:22:09;;;;;;;6.47;2.90;;;;;;;;;;4911761;29;20036;-76
2022/05/05 04:24:35;;;;;;;2.70;2.35;;;;;;;;;;4914105;29;20055;-75
2022/05/05 04:27:01;;;;;;;5.90;3.30;;;;;;;;;;4915274;29;20052;-75
2022/05/05 04:29:27;;;;;;;2.17;1.80;;;;;;;;;;4914978;29;20039;-76
2022/05/05 04:31:53;;;;;;;5.82;3.08;;;;;;;;;;4895239;29;20048;-75
2022/05/05 04:34:20;;;;;;;3.22;2.92;;;;;;;;;;4899717;29;20400;-75
2022/05/05 04:36:46;;;;;;;3.50;3.20;;;;;;;;;;4894201;29;20062;-76
2022/05/05 04:39:11;;;;;;;7.30;2.40;;;;;;;;;;4913495;29;20067;-77
2022/05/05 04:41:37;;;;;;;2.63;2.40;;;;;;;;;;4909837;29;20060;-76
2022/05/05 04:44:03;;;;;;;2.92;2.72;;;;;;;;;;4912209;29;20082;-76
2022/05/05 04:46:29;;;;;;;5.97;2.90;;;;;;;;;;4910161;29;20123;-79
2022/05/05 04:48:56;;;;;;;4.03;2.38;;;;;;;;;;4913877;29;20040;-79
2022/05/05 04:51:22;;;;;;;4.28;2.80;;;;;;;;;;4914995;29;20048;-80
2022/05/05 04:53:47;;;;;;;3.92;2.67;;;;;;;;;;4915107;29;20404;-79
2022/05/05 04:56:14;;;;;;;2.95;2.47;;;;;;;;;;4914964;29;20483;-78
2022/05/05 04:58:41;;;;;;;6.55;2.90;;;;;;;;;;4897759;29;20634;-78
2022/05/05 05:01:06;;;;;;;3.10;2.47;;;;;;;;;;4912468;29;20056;-79
2022/05/05 05:03:33;;;;;;;2.80;2.05;;;;;;;;;;4896103;29;20051;-79
2022/05/05 05:05:59;;;;;;;2.55;2.35;;;;;;;;;;4912855;29;20050;-78
2022/05/05 05:08:24;;;;;;;1.98;1.88;;;;;;;;;;4914746;29;20044;-79
2022/05/05 05:10:50;;;;;;;3.28;2.05;;;;;;;;;;4920240;29;20919;-80
2022/05/05 05:13:16;;;;;;;2.33;2.22;;;;;;;;;;4913247;29;20131;-80
2022/05/05 05:15:42;;;;;;;2.20;2.10;;;;;;;;;;4897346;29;20464;-79
2022/05/05 05:18:08;;;;;;;2.30;2.20;;;;;;;;;;4914611;29;20071;-80
2022/05/05 05:20:33;;;;;;;3.55;2.75;;;;;;;;;;4914481;29;20120;-79
2022/05/05 05:23:00;;;;;;;3.40;2.30;;;;;;;;;;4914538;29;20044;-79
2022/05/05 05:25:25;;;;;;;3.83;2.67;;;;;;;;;;4914536;29;20534;-79
2022/05/05 05:27:51;;;;;;;1.88;1.67;;;;;;;;;;4914478;29;20051;-80
2022/05/05 05:30:17;;;;;;;3.83;2.13;;;;;;;;;;4881289;29;20131;-79
2022/05/05 05:32:43;;;;;;;1.90;1.80;;;;;;;;;;4914443;29;20059;-80
2022/05/05 05:35:09;;;;;;;2.58;1.80;;;;;;;;;;4914174;29;20100;-81
2022/05/05 05:37:35;;;;;;;2.53;2.17;;;;;;;;;;4914282;29;20058;-80
2022/05/05 05:40:01;;;;;;;2.92;1.83;;;;;;;;;;4896995;29;20383;-79
2022/05/05 05:42:28;;;;;;;2.47;2.28;;;;;;;;;;4914299;29;20043;-81
2022/05/05 05:44:54;;;;;;;2.90;2.70;;;;;;;;;;4896241;29;20574;-79
2022/05/05 05:47:20;;;;;;;5.60;2.05;;;;;;;;;;4898392;29;20051;-79
2022/05/05 05:49:46;;;;;;;4.13;2.30;;;;;;;;;;4916165;29;20503;-80
2022/05/05 05:52:12;;;;;;;2.40;2.20;;;;;;;;;;4915296;29;20491;-79
2022/05/05 05:54:38;;;;;;;1.75;1.65;;;;;;;;;;4913911;29;20048;-79
2022/05/05 05:57:04;;;;;;;2.25;2.13;;;;;;;;;;4913684;29;20108;-79
2022/05/05 05:59:30;;;;;;;3.75;2.13;;;;;;;;;;4914864;29;20049;-79
2022/05/05 06:04:40;;;;;;;1.30;1.30;;;;;;;;;;4932692;29;20032;-75
2022/05/05 06:07:06;;;;;;;2.63;1.50;;;;;;;;;;4932816;29;20098;-75
2022/05/05 06:09:32;;;;;;;8.10;1.80;;;;;;;;;;4932856;29;20047;-75
2022/05/05 06:11:58;;;;;;;2.30;1.50;;;;;;;;;;4931235;29;20070;-76
2022/05/05 06:14:24;;;;;;;3.75;1.95;;;;;;;;;;4915746;29;20092;-75
2022/05/05 06:16:50;;;;;;;2.17;1.48;;;;;;;;;;4932523;29;20074;-75
2022/05/05 06:19:16;;;;;;;1.20;1.20;;;;;;;;;;4891332;29;20480;-74
2022/05/05 06:21:42;;;;;;;1.60;1.40;;;;;;;;;;4911253;29;20044;-74
2022/05/05 06:24:09;;;;;;;3.35;1.75;;;;;;;;;;4911446;29;20119;-74
2022/05/05 06:26:35;;;;;;;1.70;1.60;;;;;;;;;;4910186;29;20507;-73
2022/05/05 06:29:01;;;;;;;1.98;1.88;;;;;;;;;;4911804;29;20040;-73
2022/05/05 06:31:27;;;;;;;1.73;1.63;;;;;;;;;;4911703;29;20532;-73
2022/05/05 06:33:53;;;;;;;1.70;1.60;;;;;;;;;;4911160;29;20036;-73
2022/05/05 06:36:20;;;;;;;1.73;1.63;;;;;;;;;;4911435;29;20047;-73
2022/05/05 06:38:45;;;;;;;1.95;1.85;;;;;;;;;;4912199;29;20032;-74
2022/05/05 06:41:12;;;;;;;4.05;1.80;;;;;;;;;;4914423;29;20059;-75
2022/05/05 06:43:38;;;;;;;2.25;1.70;;;;;;;;;;4918711;29;20172;-74
2022/05/05 06:46:03;;;;;;;10.23;2.00;;;;;;;;;;4902353;29;20493;-73
2022/05/05 06:48:30;;;;;;;7.00;1.90;;;;;;;;;;4918767;29;20047;-74
2022/05/05 06:50:56;;;;;;;4.53;2.20;;;;;;;;;;4918182;29;20043;-76
2022/05/05 06:53:21;;;;;;;1.80;1.70;;;;;;;;;;4918594;29;20036;-75
2022/05/05 06:55:49;;;;;;;3.20;1.95;;;;;;;;;;4918606;29;20055;-75
2022/05/05 06:58:15;;;;;;;2.17;1.70;;;;;;;;;;4918654;29;20131;-76
2022/05/05 07:03:25;;;;;;;1.40;1.40;;;;;;;;;;4899508;29;20316;-75
2022/05/05 07:05:52;;;;;;;1.30;1.30;;;;;;;;;;4918079;29;20056;-75
2022/05/05 07:08:18;;;;;;;2.38;2.10;;;;;;;;;;4918244;29;20546;-75
2022/05/05 07:10:53;;;;;;;2.00;1.70;;;;;;;;;;4901237;29;20048;-73
2022/05/05 07:13:22;;;;;;;1.65;1.50;;;;;;;;;;4897879;29;20040;-74
2022/05/05 07:15:48;;;;;;;1.80;1.70;;;;;;;;;;4917693;29;20503;-73
2022/05/05 07:18:14;;;;;;;8.10;1.95;;;;;;;;;;4917721;29;20111;-75
2022/05/05 07:20:40;;;;;;;8.57;1.95;;;;;;;;;;4919812;29;20135;-73
2022/05/05 07:23:10;;;;;;;2.70;1.60;;;;;;;;;;4917939;29;20100;-75
2022/05/05 07:25:36;;;;;;;1.67;1.50;;;;;;;;;;4916013;29;20048;-75
2022/05/05 07:28:01;;;;;;;2.85;1.75;;;;;;;;;;4881505;29;20047;-75
2022/05/05 07:30:27;;;;;;;15.15;2.00;;;;;;;;;;4916646;29;20110;-74
2022/05/05 07:32:53;;;;;;;3.00;1.45;;;;;;;;;;4917656;29;20430;-74
2022/05/05 07:35:19;;;;;;;1.65;1.55;;;;;;;;;;4917811;29;20040;-77
2022/05/05 07:37:45;;;;;;;2.75;1.38;;;;;;;;;;4885098;29;20047;-75
2022/05/05 07:40:11;;;;;;;3.85;1.13;;;;;;;;;;4917695;29;20056;-75
2022/05/05 07:42:37;;;;;;;2.83;1.88;;;;;;;;;;4917582;29;20044;-73
2022/05/05 07:45:04;;;;;;;3.63;2.15;;;;;;;;;;4916713;29;20046;-75
2022/05/05 07:47:29;;;;;;;2.70;1.90;;;;;;;;;;4900841;29;20112;-74
2022/05/05 07:49:55;;;;;;;2.15;1.63;;;;;;;;;;4898846;29;20561;-73
2022/05/05 07:52:21;;;;;;;3.50;1.35;;;;;;;;;;4893899;29;20083;-74
2022/05/05 07:54:47;;;;;;;1.70;1.58;;;;;;;;;;4913890;29;20120;-73
2022/05/05 07:57:13;;;;;;;2.47;1.50;;;;;;;;;;4914618;29;20040;-73
2022/05/05 07:59:39;;;;;;;1.33;1.20;;;;;;;;;;4897773;29;20052;-75
2022/05/05 08:02:09;;;;;;;1.70;1.60;;;;;;;;;;4910746;29;20502;-77
2022/05/05 08:04:34;;;;;;;1.60;1.55;;;;;;;;;;4880328;29;20052;-75
2022/05/05 08:07:00;;;;;;;2.00;1.55;;;;;;;;;;4914210;29;20104;-75
2022/05/05 08:09:26;;;;;;;1.10;1.10;;;;;;;;;;4914369;29;20048;-74
2022/05/05 08:11:52;;;;;;;4.03;1.55;;;;;;;;;;4897676;29;20044;-74
2022/05/05 08:14:18;;;;;;;1.70;1.60;;;;;;;;;;4903086;29;20046;-77
2022/05/05 08:16:44;;;;;;;2.60;1.48;;;;;;;;;;4911916;29;20554;-76
2022/05/05 08:19:10;;;;;;;2.80;1.65;;;;;;;;;;4912854;29;20103;-75
2022/05/05 08:21:36;;;;;;;2.50;2.00;;;;;;;;;;4895748;29;20523;-77
2022/05/05 08:29:31;;;;;;;2.22;2.13;;;;;;;;;;4910657;29;20039;-75
2022/05/05 08:31:57;;;;;;;5.78;1.85;;;;;;;;;;4911957;29;20062;-75
2022/05/05 08:34:23;;;;;;;7.30;1.40;;;;;;;;;;4912823;29;20052;-75
2022/05/05 08:36:49;;;;;;;2.33;1.63;;;;;;;;;;4912344;29;20058;-75
2022/05/05 08:39:15;;;;;;;3.78;2.28;;;;;;;;;;4892064;29;20059;-76
2022/05/05 08:41:41;;;;;;;3.28;1.73;;;;;;;;;;4908378;29;20048;-76
2022/05/05 08:44:09;;;;;;;3.90;1.80;;;;;;;;;;4916616;29;20051;-77
2022/05/05 08:46:35;;;;;;;5.55;1.98;;;;;;;;;;4915100;29;20043;-78
2022/05/05 08:49:02;;;;;;;6.10;2.10;;;;;;;;;;4913401;29;20048;-77
2022/05/05 08:51:28;;;;;;;12.27;2.55;;;;;;;;;;4900907;29;20068;-77
2022/05/05 08:53:54;;;;;;;4.13;1.88;;;;;;;;;;4922439;29;20107;-79
2022/05/05 08:56:20;;;;;;;2.65;1.50;;;;;;;;;;4919771;29;20558;-78
2022/05/05 08:58:45;;;;;;;1.30;1.30;;;;;;;;;;4915597;29;20719;-80
2022/05/05 09:01:11;;;;;;;3.97;1.88;;;;;;;;;;4913272;29;20119;-80
2022/05/05 09:03:37;;;;;;;1.83;1.70;;;;;;;;;;4912959;29;20044;-75
2022/05/05 09:06:04;;;;;;;1.75;1.65;;;;;;;;;;4912339;29;20051;-75
2022/05/05 09:08:33;;;;;;;6.38;1.70;;;;;;;;;;4913593;29;20044;-74
2022/05/05 09:11:01;;;;;;;1.70;1.60;;;;;;;;;;4913344;29;20054;-75
2022/05/05 09:13:27;;;;;;;2.97;1.83;;;;;;;;;;4897698;29;20044;-76
2022/05/05 09:15:53;;;;;;;5.28;1.48;;;;;;;;;;4910748;29;20508;-75
2022/05/05 09:18:21;;;;;;;4.03;1.60;;;;;;;;;;4895234;29;20117;-75
2022/05/05 09:20:47;;;;;;;1.70;1.60;;;;;;;;;;4896862;29;20052;-78
2022/05/05 09:23:29;;;;;;;1.30;1.30;;;;;;;;;;4913142;29;20131;-79
2022/05/05 09:25:55;;;;;;;3.03;1.48;;;;;;;;;;4911285;29;20435;-80
2022/05/05 09:28:21;;;;;;;2.38;1.98;;;;;;;;;;4896205;29;20052;-79
2022/05/05 09:30:51;;;;;;;1.70;1.60;;;;;;;;;;4911943;29;20048;-79
2022/05/05 09:33:17;;;;;;;3.20;2.03;;;;;;;;;;4911850;29;20406;-79
2022/05/05 09:35:43;;;;;;;2.42;1.92;;;;;;;;;;4912939;29;20597;-79
2022/05/05 09:38:09;;;;;;;1.95;1.40;;;;;;;;;;4896165;29;20095;-79
2022/05/05 09:40:36;;;;;;;4.20;1.80;;;;;;;;;;4913269;29;20052;-78
2022/05/05 09:43:01;;;;;;;1.80;1.70;;;;;;;;;;4894650;29;20048;-77
2022/05/05 09:45:30;;;;;;;2.58;2.38;;;;;;;;;;4913488;29;20137;-78
2022/05/05 09:48:01;;;;;;;3.15;1.98;;;;;;;;;;4897164;29;20048;-78
2022/05/05 09:50:27;;;;;;;3.60;1.83;;;;;;;;;;4896471;29;20371;-77
2022/05/05 09:58:26;;;;;;;1.48;1.38;;;;;;;;;;4899435;29;20044;-78
2022/05/05 10:00:59;;;;;;;1.90;1.80;;;;;;;;;;4913160;29;20052;-78
2022/05/05 10:06:17;;;;;;;1.80;1.70;;;;;;;;;;4912741;29;20052;-79
2022/05/05 10:08:45;;;;;;;1.45;1.42;;;;;;;;;;4896948;29;20044;-79
2022/05/05 10:11:14;;;;;;;1.90;1.75;;;;;;;;;;4913748;29;20047;-78
2022/05/05 10:13:40;;;;;;;2.28;2.08;;;;;;;;;;4897277;29;20104;-78
2022/05/05 10:16:06;;;;;;;1.77;1.67;;;;;;;;;;4913292;29;20515;-78
2022/05/05 10:18:38;;;;;;;2.25;1.30;;;;;;;;;;4914016;29;20481;-77
2022/05/05 10:21:14;;;;;;;3.58;1.60;;;;;;;;;;4913696;29;20056;-79
2022/05/05 10:23:42;;;;;;;5.28;1.70;;;;;;;;;;4914129;29;20047;-78
2022/05/05 10:26:09;;;;;;;1.50;1.45;;;;;;;;;;4881225;29;20039;-78
2022/05/05 10:28:46;;;;;;;1.80;1.70;;;;;;;;;;4914512;29;20132;-78
2022/05/05 10:31:34;;;;;;;1.90;1.77;;;;;;;;;;4918484;29;20060;-77
2022/05/05 10:34:06;;;;;;;1.60;1.50;;;;;;;;;;4890921;29;20131;-77
2022/05/05 10:36:32;;;;;;;2.42;1.83;;;;;;;;;;4913760;29;20048;-78
2022/05/05 10:38:58;;;;;;;1.85;1.73;;;;;;;;;;4897541;29;20040;-78
2022/05/05 10:41:34;;;;;;;1.83;1.73;;;;;;;;;;4913865;29;20124;-78
2022/05/05 10:44:16;;;;;;;2.47;2.00;;;;;;;;;;4896381;29;20109;-77
2022/05/05 10:46:51;;;;;;;6.90;2.03;;;;;;;;;;4913495;29;20040;-78
2022/05/05 10:49:46;;;;;;;2.35;1.83;;;;;;;;;;4913510;29;20100;-78
2022/05/05 10:52:16;;;;;;;2.03;1.92;;;;;;;;;;4901666;29;20083;-79
2022/05/05 10:54:43;;;;;;;2.42;2.20;;;;;;;;;;4913458;29;20507;-78
2022/05/05 10:57:27;;;;;;;4.50;2.63;;;;;;;;;;4895820;29;20090;-78
2022/05/05 11:00:13;;;;;;;1.73;1.63;;;;;;;;;;4913515;29;20051;-78
2022/05/05 11:02:58;;;;;;;3.22;1.65;;;;;;;;;;4913568;29;20041;-78
2022/05/05 11:05:30;;;;;;;2.20;1.77;;;;;;;;;;4913276;29;20051;-78
2022/05/05 11:07:57;;;;;;;4.15;2.22;;;;;;;;;;4897175;29;20055;-78
2022/05/05 11:10:42;;;;;;;7.47;2.45;;;;;;;;;;4913135;29;20037;-77
2022/05/05 11:13:08;;;;;;;5.15;2.10;;;;;;;;;;4913172;29;20055;-79
2022/05/05 11:23:59;;;;;;;2.03;1.92;;;;;;;;;;4913441;29;20347;-78
2022/05/05 11:26:25;;;;;;;3.88;2.38;;;;;;;;;;4896085;29;20124;-78
2022/05/05 11:28:51;;;;;;;1.75;1.65;;;;;;;;;;4916266;29;20503;-78
2022/05/05 11:31:23;;;;;;;1.77;1.65;;;;;;;;;;4899307;29;20542;-78
2022/05/05 11:33:50;;;;;;;8.18;2.20;;;;;;;;;;4916401;29;20048;-77
2022/05/05 11:36:16;;;;;;;2.25;2.15;;;;;;;;;;4916028;29;20047;-77
2022/05/05 11:38:42;;;;;;;3.72;1.45;;;;;;;;;;4916443;29;20126;-77
2022/05/05 11:41:08;;;;;;;4.78;2.15;;;;;;;;;;4899457;29;20056;-78
2022/05/05 11:46:19;;;;;;;2.10;2.00;;;;;;;;;;4916315;29;20051;-77
2022/05/05 11:49:03;;;;;;;2.28;2.10;;;;;;;;;;4916495;29;20044;-76
2022/05/05 11:51:30;;;;;;;7.65;4.05;;;;;;;;;;4916107;29;20036;-78
2022/05/05 11:54:02;;;;;;;3.15;2.55;;;;;;;;;;4899716;29;20055;-78
2022/05/05 11:56:28;;;;;;;2.42;2.00;;;;;;;;;;4915910;29;20043;-78
2022/05/05 12:01:41;;;;;;;1.77;1.67;;;;;;;;;;4901574;29;20048;-77
2022/05/05 12:04:08;;;;;;;2.88;1.58;;;;;;;;;;4884109;29;20048;-78
2022/05/05 12:06:35;;;;;;;2.45;1.67;;;;;;;;;;4916089;29;20044;-78
2022/05/05 12:09:01;;;;;;;2.40;2.25;;;;;;;;;;4883515;29;20048;-79
2022/05/05 12:11:27;;;;;;;2.45;2.30;;;;;;;;;;4915543;29;20082;-78
2022/05/05 12:14:00;;;;;;;4.95;2.65;;;;;;;;;;4914850;29;20191;-78
2022/05/05 12:16:30;;;;;;;5.85;1.80;;;;;;;;;;4902475;29;20111;-77
2022/05/05 12:18:56;;;;;;;2.47;2.28;;;;;;;;;;4918374;29;20232;-78
2022/05/05 12:21:22;;;;;;;1.73;1.63;;;;;;;;;;4915354;29;20457;-78
2022/05/05 12:23:58;;;;;;;3.38;1.92;;;;;;;;;;4915601;29;20044;-77
2022/05/05 12:26:28;;;;;;;5.03;2.53;;;;;;;;;;4898460;29;20476;-78
2022/05/05 12:28:54;;;;;;;2.10;1.90;;;;;;;;;;4915920;29;20044;-78
2022/05/05 12:31:21;;;;;;;2.47;2.15;;;;;;;;;;4915118;29;20151;-77
2022/05/05 12:33:47;;;;;;;2.15;1.80;;;;;;;;;;4915946;29;20479;-78
2022/05/05 12:36:14;;;;;;;2.28;2.13;;;;;;;;;;4915127;29;20132;-78
2022/05/05 12:38:39;;;;;;;2.42;1.70;;;;;;;;;;4915110;29;20544;-78
2022/05/05 12:41:06;;;;;;;2.00;1.90;;;;;;;;;;4915498;29;20052;-79
2022/05/05 12:43:32;;;;;;;2.33;2.13;;;;;;;;;;4915504;29;20408;-78
2022/05/05 12:46:01;;;;;;;1.90;1.80;;;;;;;;;;4915539;29;20056;-77
2022/05/05 12:48:27;;;;;;;1.80;1.70;;;;;;;;;;4915142;29;20059;-78
2022/05/05 12:50:53;;;;;;;4.30;1.70;;;;;;;;;;4915869;29;20307;-78
2022/05/05 13:01:40;;;;;;;1.75;1.65;;;;;;;;;;4915744;29;20112;-78
2022/05/05 13:04:09;;;;;;;2.30;2.10;;;;;;;;;;4902892;29;20147;-76
2022/05/05 13:06:35;;;;;;;2.25;2.08;;;;;;;;;;4893715;29;20067;-78
2022/05/05 13:09:01;;;;;;;3.53;1.42;;;;;;;;;;4908800;29;20048;-77
2022/05/05 13:11:27;;;;;;;2.08;1.88;;;;;;;;;;4918599;29;20124;-78
2022/05/05 13:13:53;;;;;;;2.80;1.70;;;;;;;;;;4914967;29;20104;-77
2022/05/05 13:16:19;;;;;;;1.80;1.70;;;;;;;;;;4914959;29;20383;-77
2022/05/05 13:18:45;;;;;;;3.28;2.30;;;;;;;;;;4898186;29;20491;-77
2022/05/05 13:21:11;;;;;;;2.50;2.13;;;;;;;;;;4914730;29;20059;-76
2022/05/05 13:23:37;;;;;;;7.75;1.90;;;;;;;;;;4914885;29;20518;-77
2022/05/05 13:26:03;;;;;;;1.55;1.48;;;;;;;;;;4914507;29;20055;-77
2022/05/05 13:28:31;;;;;;;2.38;2.20;;;;;;;;;;4914387;29;20036;-77
2022/05/05 13:30:57;;;;;;;1.35;1.35;;;;;;;;;;4914678;29;20060;-78
2022/05/05 13:33:23;;;;;;;1.60;1.50;;;;;;;;;;4914338;29;20107;-78
2022/05/05 13:35:50;;;;;;;1.70;1.60;;;;;;;;;;4914971;29;20681;-78
2022/05/05 13:38:15;;;;;;;2.75;1.80;;;;;;;;;;4913860;29;20441;-78
2022/05/05 13:40:41;;;;;;;2.22;1.88;;;;;;;;;;4914538;29;20048;-78
2022/05/05 13:43:08;;;;;;;2.53;1.88;;;;;;;;;;4914572;29;20095;-77
2022/05/05 13:45:34;;;;;;;2.22;2.08;;;;;;;;;;4897215;29;20104;-77
2022/05/05 13:48:00;;;;;;;1.77;1.67;;;;;;;;;;4914600;29;20052;-77
2022/05/05 13:50:26;;;;;;;4.13;2.03;;;;;;;;;;4912474;29;20046;-78
2022/05/05 13:52:52;;;;;;;2.10;2.00;;;;;;;;;;4896216;29;20460;-77
2022/05/05 13:55:18;;;;;;;2.05;1.95;;;;;;;;;;4913864;29;20044;-77
2022/05/05 13:57:44;;;;;;;1.38;1.35;;;;;;;;;;4914256;29;20047;-76
2022/05/05 14:00:10;;;;;;;1.83;1.73;;;;;;;;;;4913577;29;20047;-78
2022/05/05 14:02:42;;;;;;;4.88;1.60;;;;;;;;;;4917580;29;20048;-77
2022/05/05 14:05:08;;;;;;;3.58;1.60;;;;;;;;;;4913964;29;20507;-77
2022/05/05 14:13:14;;;;;;;3.33;2.13;;;;;;;;;;4913603;29;20100;-77
2022/05/05 14:15:41;;;;;;;1.98;1.83;;;;;;;;;;4913473;29;20079;-77
2022/05/05 14:18:07;;;;;;;4.95;2.45;;;;;;;;;;4913222;29;20050;-78
2022/05/05 14:20:33;;;;;;;8.77;1.83;;;;;;;;;;4913554;29;20476;-78
2022/05/05 14:22:59;;;;;;;1.40;1.40;;;;;;;;;;4913457;29;20570;-77
2022/05/05 14:25:26;;;;;;;2.45;1.90;;;;;;;;;;4913720;29;20139;-78
2022/05/05 14:27:51;;;;;;;6.60;1.75;;;;;;;;;;4913206;29;20048;-78
2022/05/05 14:30:18;;;;;;;1.90;1.80;;;;;;;;;;4896692;29;20055;-78
2022/05/05 14:32:44;;;;;;;4.32;1.58;;;;;;;;;;4913287;29;20400;-78
2022/05/05 14:35:10;;;;;;;2.05;1.85;;;;;;;;;;4896336;29;20084;-78
2022/05/05 14:37:36;;;;;;;1.77;1.67;;;;;;;;;;4896078;29;20047;-78
2022/05/05 14:40:02;;;;;;;2.30;1.67;;;;;;;;;;4895773;29;20056;-77
2022/05/05 14:42:29;;;;;;;1.42;1.38;;;;;;;;;;4896241;29;20040;-78
2022/05/05 14:44:55;;;;;;;2.10;1.85;;;;;;;;;;4913134;29;20428;-78
2022/05/05 14:47:21;;;;;;;3.08;1.73;;;;;;;;;;4913199;29;20590;-78
2022/05/05 14:49:48;;;;;;;7.72;1.73;;;;;;;;;;4913629;29;20077;-79
2022/05/05 14:52:15;;;;;;;3.40;1.77;;;;;;;;;;4896667;29;20033;-79
2022/05/05 14:54:41;;;;;;;3.05;1.77;;;;;;;;;;4913538;29;20048;-77
2022/05/05 14:57:09;;;;;;;2.08;1.85;;;;;;;;;;4913082;29;20140;-78
2022/05/05 14:59:35;;;;;;;3.70;2.00;;;;;;;;;;4896594;29;20535;-78
2022/05/05 15:02:00;;;;;;;2.47;1.48;;;;;;;;;;4898306;29;20040;-79
2022/05/05 15:04:26;;;;;;;3.13;1.60;;;;;;;;;;4916930;29;20072;-78
2022/05/05 15:06:52;;;;;;;2.10;2.00;;;;;;;;;;4917233;29;20052;-77
2022/05/05 15:09:18;;;;;;;2.58;1.75;;;;;;;;;;4917260;29;20048;-78
2022/05/05 15:11:44;;;;;;;3.67;1.80;;;;;;;;;;4916517;29;20139;-78
2022/05/05 15:14:10;;;;;;;5.55;1.70;;;;;;;;;;4900691;29;20092;-78
2022/05/05 15:16:36;;;;;;;6.22;1.65;;;;;;;;;;4899651;29;20621;-78
2022/05/05 15:19:02;;;;;;;1.60;1.50;;;;;;;;;;4900635;29;20075;-78
2022/05/05 15:21:28;;;;;;;2.97;2.10;;;;;;;;;;4916934;29;20064;-78
2022/05/05 15:23:54;;;;;;;3.83;2.00;;;;;;;;;;4917525;29;20036;-78
2022/05/05 15:26:20;;;;;;;1.55;1.50;;;;;;;;;;4917161;29;20127;-78
2022/05/05 15:28:46;;;;;;;3.58;1.67;;;;;;;;;;4900238;29;20646;-78
2022/05/05 15:31:12;;;;;;;2.83;1.67;;;;;;;;;;4916631;29;20064;-78
2022/05/05 15:33:38;;;;;;;1.90;1.70;;;;;;;;;;4917468;29;20037;-78
2022/05/05 15:36:07;;;;;;;5.65;1.90;;;;;;;;;;4917231;29;20111;-79
2022/05/05 15:38:33;;;;;;;4.35;1.98;;;;;;;;;;4916482;29;20093;-79